sensor_id;sensor_type;location;lat;lon;timestamp;temperature;humidity
17632;DHT22;8934;51.194;17.150;2022-08-04T00:02:12;16.10;99.90
17632;DHT22;8934;51.194;17.150;2022-08-04T00:05:02;16.10;99.90
17632;DHT22;8934;51.194;17.150;2022-08-04T00:07:53;16.10;99.90
17632;DHT22;8934;51.194;17.150;2022-08-04T00:10:46;16.00;99.90
17632;DHT22;8934;51.194;17.150;2022-08-04T00:13:36;16.00;99.90
17632;DHT22;8934;51.194;17.150;2022-08-04T00:16:45;16.00;99.90
17632;DHT22;8934;51.194;17.150;2022-08-04T00:19:37;15.90;99.90
17632;DHT22;8934;51.194;17.150;2022-08-04T00:22:27;15.90;99.90
17632;DHT22;8934;51.194;17.150;2022-08-04T00:25:15;15.90;99.90
17632;DHT22;8934;51.194;17.150;2022-08-04T00:28:03;15.80;99.90
17632;DHT22;8934;51.194;17.150;2022-08-04T00:30:50;15.80;99.90
17632;DHT22;8934;51.194;17.150;2022-08-04T00:33:39;15.80;99.90
17632;DHT22;8934;51.194;17.150;2022-08-04T00:36:29;15.80;99.90
17632;DHT22;8934;51.194;17.150;2022-08-04T00:39:16;15.70;99.90
17632;DHT22;8934;51.194;17.150;2022-08-04T00:45:25;15.70;99.90
17632;DHT22;8934;51.194;17.150;2022-08-04T00:48:44;15.60;99.90
17632;DHT22;8934;51.194;17.150;2022-08-04T00:51:45;15.60;99.90
17632;DHT22;8934;51.194;17.150;2022-08-04T00:54:58;15.60;99.90
17632;DHT22;8934;51.194;17.150;2022-08-04T00:58:02;15.50;99.90
17632;DHT22;8934;51.194;17.150;2022-08-04T01:00:53;15.50;99.90
17632;DHT22;8934;51.194;17.150;2022-08-04T01:03:48;15.50;99.90
17632;DHT22;8934;51.194;17.150;2022-08-04T01:06:39;15.50;99.90
17632;DHT22;8934;51.194;17.150;2022-08-04T01:09:32;15.40;99.90
17632;DHT22;8934;51.194;17.150;2022-08-04T01:12:28;15.40;99.90
17632;DHT22;8934;51.194;17.150;2022-08-04T01:15:20;15.40;99.90
17632;DHT22;8934;51.194;17.150;2022-08-04T01:18:12;15.30;99.90
17632;DHT22;8934;51.194;17.150;2022-08-04T01:21:07;15.30;99.90
17632;DHT22;8934;51.194;17.150;2022-08-04T01:24:08;15.30;99.90
17632;DHT22;8934;51.194;17.150;2022-08-04T01:27:00;15.30;99.90
17632;DHT22;8934;51.194;17.150;2022-08-04T01:29:55;15.30;99.90
17632;DHT22;8934;51.194;17.150;2022-08-04T01:32:46;15.30;99.90
17632;DHT22;8934;51.194;17.150;2022-08-04T01:35:35;15.30;99.90
17632;DHT22;8934;51.194;17.150;2022-08-04T01:38:34;15.30;99.90
17632;DHT22;8934;51.194;17.150;2022-08-04T01:41:22;15.30;99.90
17632;DHT22;8934;51.194;17.150;2022-08-04T01:44:17;15.20;99.90
17632;DHT22;8934;51.194;17.150;2022-08-04T01:47:07;15.20;99.90
17632;DHT22;8934;51.194;17.150;2022-08-04T01:49:58;15.20;99.90
17632;DHT22;8934;51.194;17.150;2022-08-04T01:52:47;15.20;99.90
17632;DHT22;8934;51.194;17.150;2022-08-04T01:55:36;15.10;99.90
17632;DHT22;8934;51.194;17.150;2022-08-04T01:58:40;15.10;99.90
17632;DHT22;8934;51.194;17.150;2022-08-04T02:01:28;15.10;99.90
17632;DHT22;8934;51.194;17.150;2022-08-04T02:04:17;15.10;99.90
17632;DHT22;8934;51.194;17.150;2022-08-04T02:07:15;15.10;99.90
17632;DHT22;8934;51.194;17.150;2022-08-04T02:10:04;15.00;99.90
17632;DHT22;8934;51.194;17.150;2022-08-04T02:12:56;15.00;99.90
17632;DHT22;8934;51.194;17.150;2022-08-04T02:15:48;15.00;99.90
17632;DHT22;8934;51.194;17.150;2022-08-04T02:18:42;15.00;99.90
17632;DHT22;8934;51.194;17.150;2022-08-04T02:21:32;15.00;99.90
17632;DHT22;8934;51.194;17.150;2022-08-04T02:24:27;15.00;99.90
17632;DHT22;8934;51.194;17.150;2022-08-04T02:27:16;15.00;99.90
17632;DHT22;8934;51.194;17.150;2022-08-04T02:30:07;15.00;99.90
17632;DHT22;8934;51.194;17.150;2022-08-04T02:32:55;15.00;99.90
17632;DHT22;8934;51.194;17.150;2022-08-04T02:35:43;14.90;99.90
17632;DHT22;8934;51.194;17.150;2022-08-04T02:41:38;14.90;99.90
17632;DHT22;8934;51.194;17.150;2022-08-04T02:44:27;14.90;99.90
17632;DHT22;8934;51.194;17.150;2022-08-04T02:47:15;15.00;99.90
17632;DHT22;8934;51.194;17.150;2022-08-04T02:50:04;15.00;99.90
17632;DHT22;8934;51.194;17.150;2022-08-04T02:52:55;15.00;99.90
17632;DHT22;8934;51.194;17.150;2022-08-04T02:55:42;14.90;99.90
17632;DHT22;8934;51.194;17.150;2022-08-04T02:58:37;14.90;99.90
17632;DHT22;8934;51.194;17.150;2022-08-04T03:01:27;14.90;99.90
17632;DHT22;8934;51.194;17.150;2022-08-04T03:04:20;14.80;99.90
17632;DHT22;8934;51.194;17.150;2022-08-04T03:07:24;14.80;99.90
17632;DHT22;8934;51.194;17.150;2022-08-04T03:13:32;14.80;99.90
17632;DHT22;8934;51.194;17.150;2022-08-04T03:16:33;14.80;99.90
17632;DHT22;8934;51.194;17.150;2022-08-04T03:26:19;14.80;99.90
17632;DHT22;8934;51.194;17.150;2022-08-04T03:35:39;14.60;99.90
17632;DHT22;8934;51.194;17.150;2022-08-04T03:38:39;14.60;99.90
17632;DHT22;8934;51.194;17.150;2022-08-04T03:44:58;14.60;99.90
17632;DHT22;8934;51.194;17.150;2022-08-04T03:48:12;14.60;99.90
17632;DHT22;8934;51.194;17.150;2022-08-04T03:51:13;14.60;99.90
17632;DHT22;8934;51.194;17.150;2022-08-04T03:57:42;14.70;99.90
17632;DHT22;8934;51.194;17.150;2022-08-04T04:00:35;14.80;99.90
17632;DHT22;8934;51.194;17.150;2022-08-04T04:03:40;14.80;99.90
17632;DHT22;8934;51.194;17.150;2022-08-04T04:06:45;14.80;99.90
17632;DHT22;8934;51.194;17.150;2022-08-04T04:09:56;14.90;99.90
17632;DHT22;8934;51.194;17.150;2022-08-04T04:13:06;15.00;99.90
17632;DHT22;8934;51.194;17.150;2022-08-04T04:16:08;15.10;99.90
17632;DHT22;8934;51.194;17.150;2022-08-04T04:22:08;15.20;99.90
17632;DHT22;8934;51.194;17.150;2022-08-04T04:25:03;15.30;99.90
17632;DHT22;8934;51.194;17.150;2022-08-04T04:27:55;15.40;99.90
17632;DHT22;8934;51.194;17.150;2022-08-04T04:31:14;15.50;99.90
17632;DHT22;8934;51.194;17.150;2022-08-04T04:34:07;15.60;99.90
17632;DHT22;8934;51.194;17.150;2022-08-04T04:37:04;15.70;99.90
17632;DHT22;8934;51.194;17.150;2022-08-04T04:39:58;15.80;99.90
17632;DHT22;8934;51.194;17.150;2022-08-04T04:43:07;15.90;99.90
17632;DHT22;8934;51.194;17.150;2022-08-04T04:45:57;16.00;99.90
17632;DHT22;8934;51.194;17.150;2022-08-04T04:48:50;16.20;99.90
17632;DHT22;8934;51.194;17.150;2022-08-04T04:51:41;16.30;99.90
17632;DHT22;8934;51.194;17.150;2022-08-04T04:54:32;16.50;99.90
17632;DHT22;8934;51.194;17.150;2022-08-04T04:57:22;16.60;99.90
17632;DHT22;8934;51.194;17.150;2022-08-04T05:00:33;16.70;99.90
17632;DHT22;8934;51.194;17.150;2022-08-04T05:03:28;16.90;99.90
17632;DHT22;8934;51.194;17.150;2022-08-04T05:06:20;17.00;99.90
17632;DHT22;8934;51.194;17.150;2022-08-04T05:12:23;17.30;99.90
17632;DHT22;8934;51.194;17.150;2022-08-04T05:15:33;17.40;99.90
17632;DHT22;8934;51.194;17.150;2022-08-04T05:18:23;17.60;99.90
17632;DHT22;8934;51.194;17.150;2022-08-04T05:21:15;17.70;99.90
17632;DHT22;8934;51.194;17.150;2022-08-04T05:24:08;17.80;99.90
17632;DHT22;8934;51.194;17.150;2022-08-04T05:26:58;18.00;99.90
17632;DHT22;8934;51.194;17.150;2022-08-04T05:29:50;18.10;99.90
17632;DHT22;8934;51.194;17.150;2022-08-04T05:32:43;18.20;99.90
17632;DHT22;8934;51.194;17.150;2022-08-04T05:35:33;18.30;99.90
17632;DHT22;8934;51.194;17.150;2022-08-04T05:38:41;18.50;99.90
17632;DHT22;8934;51.194;17.150;2022-08-04T05:41:30;18.60;99.90
17632;DHT22;8934;51.194;17.150;2022-08-04T05:44:32;18.70;99.90
17632;DHT22;8934;51.194;17.150;2022-08-04T05:47:22;18.90;99.90
17632;DHT22;8934;51.194;17.150;2022-08-04T05:50:11;19.10;99.90
17632;DHT22;8934;51.194;17.150;2022-08-04T05:52:59;19.20;99.90
17632;DHT22;8934;51.194;17.150;2022-08-04T05:55:47;19.40;99.90
17632;DHT22;8934;51.194;17.150;2022-08-04T05:58:44;19.50;99.90
17632;DHT22;8934;51.194;17.150;2022-08-04T06:01:32;19.70;99.90
17632;DHT22;8934;51.194;17.150;2022-08-04T06:04:44;19.90;99.90
17632;DHT22;8934;51.194;17.150;2022-08-04T06:07:32;20.00;99.90
17632;DHT22;8934;51.194;17.150;2022-08-04T06:10:39;20.20;99.90
17632;DHT22;8934;51.194;17.150;2022-08-04T06:13:29;20.30;99.90
17632;DHT22;8934;51.194;17.150;2022-08-04T06:16:36;20.50;99.90
17632;DHT22;8934;51.194;17.150;2022-08-04T06:19:25;20.70;99.90
17632;DHT22;8934;51.194;17.150;2022-08-04T06:22:37;20.90;99.90
17632;DHT22;8934;51.194;17.150;2022-08-04T06:25:27;21.00;99.90
17632;DHT22;8934;51.194;17.150;2022-08-04T06:28:16;21.20;99.90
17632;DHT22;8934;51.194;17.150;2022-08-04T06:31:04;21.40;99.90
17632;DHT22;8934;51.194;17.150;2022-08-04T06:34:14;21.50;99.90
17632;DHT22;8934;51.194;17.150;2022-08-04T06:37:02;21.70;99.90
17632;DHT22;8934;51.194;17.150;2022-08-04T06:39:51;21.80;99.90
17632;DHT22;8934;51.194;17.150;2022-08-04T06:42:39;22.00;99.90
17632;DHT22;8934;51.194;17.150;2022-08-04T06:45:27;22.20;99.90
17632;DHT22;8934;51.194;17.150;2022-08-04T06:48:16;22.30;99.90
17632;DHT22;8934;51.194;17.150;2022-08-04T06:51:04;22.50;99.90
17632;DHT22;8934;51.194;17.150;2022-08-04T06:54:12;22.70;99.90
17632;DHT22;8934;51.194;17.150;2022-08-04T06:57:01;22.90;99.90
17632;DHT22;8934;51.194;17.150;2022-08-04T06:59:50;23.10;99.90
17632;DHT22;8934;51.194;17.150;2022-08-04T07:02:38;23.30;99.90
17632;DHT22;8934;51.194;17.150;2022-08-04T07:05:27;23.50;99.90
17632;DHT22;8934;51.194;17.150;2022-08-04T07:08:15;23.60;99.90
17632;DHT22;8934;51.194;17.150;2022-08-04T07:11:03;23.90;99.90
17632;DHT22;8934;51.194;17.150;2022-08-04T07:13:55;24.10;99.90
17632;DHT22;8934;51.194;17.150;2022-08-04T07:16:43;24.30;99.90
17632;DHT22;8934;51.194;17.150;2022-08-04T07:19:31;24.40;99.90
17632;DHT22;8934;51.194;17.150;2022-08-04T07:22:19;24.70;99.90
17632;DHT22;8934;51.194;17.150;2022-08-04T07:25:10;24.80;99.90
17632;DHT22;8934;51.194;17.150;2022-08-04T07:27:59;25.00;99.90
17632;DHT22;8934;51.194;17.150;2022-08-04T07:30:48;25.20;99.90
17632;DHT22;8934;51.194;17.150;2022-08-04T07:33:36;25.40;99.90
17632;DHT22;8934;51.194;17.150;2022-08-04T07:36:24;25.70;99.90
17632;DHT22;8934;51.194;17.150;2022-08-04T07:39:16;25.90;99.90
17632;DHT22;8934;51.194;17.150;2022-08-04T07:42:13;26.10;99.90
17632;DHT22;8934;51.194;17.150;2022-08-04T07:45:01;26.20;99.90
17632;DHT22;8934;51.194;17.150;2022-08-04T07:47:50;26.40;99.90
17632;DHT22;8934;51.194;17.150;2022-08-04T07:50:51;26.50;99.90
17632;DHT22;8934;51.194;17.150;2022-08-04T07:53:38;26.70;99.90
17632;DHT22;8934;51.194;17.150;2022-08-04T07:56:41;26.90;99.90
17632;DHT22;8934;51.194;17.150;2022-08-04T07:59:30;27.10;99.90
17632;DHT22;8934;51.194;17.150;2022-08-04T08:02:19;27.30;99.90
17632;DHT22;8934;51.194;17.150;2022-08-04T08:05:08;27.60;99.90
17632;DHT22;8934;51.194;17.150;2022-08-04T08:07:57;27.70;99.90
17632;DHT22;8934;51.194;17.150;2022-08-04T08:10:45;27.90;99.90
17632;DHT22;8934;51.194;17.150;2022-08-04T08:13:33;28.00;99.90
17632;DHT22;8934;51.194;17.150;2022-08-04T08:16:21;28.00;99.90
17632;DHT22;8934;51.194;17.150;2022-08-04T08:19:10;28.10;99.90
17632;DHT22;8934;51.194;17.150;2022-08-04T08:21:59;28.30;99.90
17632;DHT22;8934;51.194;17.150;2022-08-04T08:25:07;28.60;99.90
17632;DHT22;8934;51.194;17.150;2022-08-04T08:27:55;28.80;99.90
17632;DHT22;8934;51.194;17.150;2022-08-04T08:30:42;29.00;99.90
17632;DHT22;8934;51.194;17.150;2022-08-04T08:33:37;29.10;99.90
17632;DHT22;8934;51.194;17.150;2022-08-04T08:36:25;29.20;99.90
17632;DHT22;8934;51.194;17.150;2022-08-04T08:39:17;29.30;99.90
17632;DHT22;8934;51.194;17.150;2022-08-04T08:45:29;29.60;99.90
17632;DHT22;8934;51.194;17.150;2022-08-04T08:48:32;29.70;99.90
17632;DHT22;8934;51.194;17.150;2022-08-04T08:51:28;30.00;99.90
17632;DHT22;8934;51.194;17.150;2022-08-04T09:00:50;30.50;99.90
17632;DHT22;8934;51.194;17.150;2022-08-04T09:04:08;30.60;99.90
17632;DHT22;8934;51.194;17.150;2022-08-04T09:07:13;30.60;99.90
17632;DHT22;8934;51.194;17.150;2022-08-04T09:10:04;30.80;99.90
17632;DHT22;8934;51.194;17.150;2022-08-04T09:12:56;31.10;99.90
17632;DHT22;8934;51.194;17.150;2022-08-04T09:15:46;31.30;99.90
17632;DHT22;8934;51.194;17.150;2022-08-04T09:18:44;31.40;99.90
17632;DHT22;8934;51.194;17.150;2022-08-04T09:21:36;31.30;98.50
17632;DHT22;8934;51.194;17.150;2022-08-04T09:24:27;31.20;99.10
17632;DHT22;8934;51.194;17.150;2022-08-04T09:27:23;31.30;98.40
17632;DHT22;8934;51.194;17.150;2022-08-04T09:30:14;31.40;99.90
17632;DHT22;8934;51.194;17.150;2022-08-04T09:33:06;31.60;97.00
17632;DHT22;8934;51.194;17.150;2022-08-04T09:36:03;31.60;97.30
17632;DHT22;8934;51.194;17.150;2022-08-04T09:38:59;31.80;96.90
17632;DHT22;8934;51.194;17.150;2022-08-04T09:41:50;32.00;95.70
17632;DHT22;8934;51.194;17.150;2022-08-04T09:44:47;32.20;95.60
17632;DHT22;8934;51.194;17.150;2022-08-04T09:47:48;32.50;95.10
17632;DHT22;8934;51.194;17.150;2022-08-04T09:50:38;32.70;94.70
17632;DHT22;8934;51.194;17.150;2022-08-04T09:53:35;32.80;93.60
17632;DHT22;8934;51.194;17.150;2022-08-04T09:56:25;32.90;93.60
17632;DHT22;8934;51.194;17.150;2022-08-04T09:59:17;33.00;94.10
17632;DHT22;8934;51.194;17.150;2022-08-04T10:02:06;33.10;92.80
17632;DHT22;8934;51.194;17.150;2022-08-04T10:04:55;33.30;92.30
17632;DHT22;8934;51.194;17.150;2022-08-04T10:07:46;33.40;92.40
17632;DHT22;8934;51.194;17.150;2022-08-04T10:11:02;33.20;92.50
17632;DHT22;8934;51.194;17.150;2022-08-04T10:13:55;33.20;92.20
17632;DHT22;8934;51.194;17.150;2022-08-04T10:16:45;33.30;91.40
17632;DHT22;8934;51.194;17.150;2022-08-04T10:19:34;33.50;90.20
17632;DHT22;8934;51.194;17.150;2022-08-04T10:22:24;33.70;90.10
17632;DHT22;8934;51.194;17.150;2022-08-04T10:25:20;33.90;88.90
17632;DHT22;8934;51.194;17.150;2022-08-04T10:28:33;33.90;88.90
17632;DHT22;8934;51.194;17.150;2022-08-04T10:31:23;33.80;85.70
17632;DHT22;8934;51.194;17.150;2022-08-04T10:34:13;33.90;87.40
17632;DHT22;8934;51.194;17.150;2022-08-04T10:37:07;34.10;86.60
17632;DHT22;8934;51.194;17.150;2022-08-04T10:39:58;34.40;85.50
17632;DHT22;8934;51.194;17.150;2022-08-04T10:43:08;34.70;85.70
17632;DHT22;8934;51.194;17.150;2022-08-04T10:46:09;34.80;85.90
17632;DHT22;8934;51.194;17.150;2022-08-04T10:48:59;35.00;83.70
17632;DHT22;8934;51.194;17.150;2022-08-04T10:51:50;35.10;81.10
17632;DHT22;8934;51.194;17.150;2022-08-04T10:54:45;35.00;84.00
17632;DHT22;8934;51.194;17.150;2022-08-04T10:57:35;34.80;84.10
17632;DHT22;8934;51.194;17.150;2022-08-04T11:00:23;34.90;83.70
17632;DHT22;8934;51.194;17.150;2022-08-04T11:03:16;34.90;82.00
17632;DHT22;8934;51.194;17.150;2022-08-04T11:06:05;35.20;80.60
17632;DHT22;8934;51.194;17.150;2022-08-04T11:08:54;35.40;81.40
17632;DHT22;8934;51.194;17.150;2022-08-04T11:11:44;35.40;80.00
17632;DHT22;8934;51.194;17.150;2022-08-04T11:14:49;35.40;81.20
17632;DHT22;8934;51.194;17.150;2022-08-04T11:17:39;35.50;78.50
17632;DHT22;8934;51.194;17.150;2022-08-04T11:20:29;35.50;80.40
17632;DHT22;8934;51.194;17.150;2022-08-04T11:23:22;35.70;80.30
17632;DHT22;8934;51.194;17.150;2022-08-04T11:26:12;35.70;81.00
17632;DHT22;8934;51.194;17.150;2022-08-04T11:29:04;35.40;81.20
17632;DHT22;8934;51.194;17.150;2022-08-04T11:31:55;35.60;80.70
17632;DHT22;8934;51.194;17.150;2022-08-04T11:34:46;35.80;81.00
17632;DHT22;8934;51.194;17.150;2022-08-04T11:37:42;36.10;77.90
17632;DHT22;8934;51.194;17.150;2022-08-04T11:40:35;36.10;79.70
17632;DHT22;8934;51.194;17.150;2022-08-04T11:43:24;36.40;77.40
17632;DHT22;8934;51.194;17.150;2022-08-04T11:46:33;36.80;74.90
17632;DHT22;8934;51.194;17.150;2022-08-04T11:49:25;36.80;74.00
17632;DHT22;8934;51.194;17.150;2022-08-04T11:52:15;36.60;78.80
17632;DHT22;8934;51.194;17.150;2022-08-04T11:55:09;36.50;77.50
17632;DHT22;8934;51.194;17.150;2022-08-04T11:57:57;36.20;77.90
17632;DHT22;8934;51.194;17.150;2022-08-04T12:00:50;36.00;75.70
17632;DHT22;8934;51.194;17.150;2022-08-04T12:03:38;36.00;81.90
17632;DHT22;8934;51.194;17.150;2022-08-04T12:06:50;36.00;77.10
17632;DHT22;8934;51.194;17.150;2022-08-04T12:10:02;36.20;76.70
17632;DHT22;8934;51.194;17.150;2022-08-04T12:12:57;36.40;78.90
17632;DHT22;8934;51.194;17.150;2022-08-04T12:15:51;36.70;79.20
17632;DHT22;8934;51.194;17.150;2022-08-04T12:18:44;36.80;76.00
17632;DHT22;8934;51.194;17.150;2022-08-04T12:21:38;37.00;77.60
17632;DHT22;8934;51.194;17.150;2022-08-04T12:24:40;37.00;77.00
17632;DHT22;8934;51.194;17.150;2022-08-04T12:27:30;36.80;75.60
17632;DHT22;8934;51.194;17.150;2022-08-04T12:30:21;36.80;75.00
17632;DHT22;8934;51.194;17.150;2022-08-04T12:33:31;36.80;75.90
17632;DHT22;8934;51.194;17.150;2022-08-04T12:36:42;37.00;73.80
17632;DHT22;8934;51.194;17.150;2022-08-04T12:39:31;37.20;75.90
17632;DHT22;8934;51.194;17.150;2022-08-04T12:42:21;37.50;75.30
17632;DHT22;8934;51.194;17.150;2022-08-04T12:45:09;37.40;75.00
17632;DHT22;8934;51.194;17.150;2022-08-04T12:47:59;37.10;75.30
17632;DHT22;8934;51.194;17.150;2022-08-04T12:50:49;37.20;75.40
17632;DHT22;8934;51.194;17.150;2022-08-04T12:53:38;37.30;74.60
17632;DHT22;8934;51.194;17.150;2022-08-04T12:56:36;37.50;73.30
17632;DHT22;8934;51.194;17.150;2022-08-04T12:59:25;37.50;72.10
17632;DHT22;8934;51.194;17.150;2022-08-04T13:02:15;37.40;72.00
17632;DHT22;8934;51.194;17.150;2022-08-04T13:05:05;37.40;71.70
17632;DHT22;8934;51.194;17.150;2022-08-04T13:07:54;37.40;74.10
17632;DHT22;8934;51.194;17.150;2022-08-04T13:10:43;37.40;73.30
17632;DHT22;8934;51.194;17.150;2022-08-04T13:13:32;37.50;75.50
17632;DHT22;8934;51.194;17.150;2022-08-04T13:16:28;37.60;73.60
17632;DHT22;8934;51.194;17.150;2022-08-04T13:19:16;37.50;67.20
17632;DHT22;8934;51.194;17.150;2022-08-04T13:22:07;37.50;69.20
17632;DHT22;8934;51.194;17.150;2022-08-04T13:24:57;37.50;66.70
17632;DHT22;8934;51.194;17.150;2022-08-04T13:28:05;37.40;69.40
17632;DHT22;8934;51.194;17.150;2022-08-04T13:30:56;37.50;69.80
17632;DHT22;8934;51.194;17.150;2022-08-04T13:33:45;37.60;67.10
17632;DHT22;8934;51.194;17.150;2022-08-04T13:36:33;37.70;67.60
17632;DHT22;8934;51.194;17.150;2022-08-04T13:39:23;38.00;65.40
17632;DHT22;8934;51.194;17.150;2022-08-04T13:42:12;38.00;65.70
17632;DHT22;8934;51.194;17.150;2022-08-04T13:45:00;37.90;64.70
17632;DHT22;8934;51.194;17.150;2022-08-04T13:47:50;37.80;67.50
17632;DHT22;8934;51.194;17.150;2022-08-04T13:50:37;37.90;68.80
17632;DHT22;8934;51.194;17.150;2022-08-04T13:53:31;37.90;68.90
17632;DHT22;8934;51.194;17.150;2022-08-04T13:56:20;38.00;65.50
17632;DHT22;8934;51.194;17.150;2022-08-04T13:59:15;38.10;64.30
17632;DHT22;8934;51.194;17.150;2022-08-04T14:02:04;38.20;64.20
17632;DHT22;8934;51.194;17.150;2022-08-04T14:04:53;38.20;66.60
17632;DHT22;8934;51.194;17.150;2022-08-04T14:07:44;38.10;65.60
17632;DHT22;8934;51.194;17.150;2022-08-04T14:10:32;38.10;64.40
17632;DHT22;8934;51.194;17.150;2022-08-04T14:13:28;38.00;68.80
17632;DHT22;8934;51.194;17.150;2022-08-04T14:16:27;38.00;63.60
17632;DHT22;8934;51.194;17.150;2022-08-04T14:19:14;37.90;66.70
17632;DHT22;8934;51.194;17.150;2022-08-04T14:22:01;37.60;70.00
17632;DHT22;8934;51.194;17.150;2022-08-04T14:24:54;37.40;71.20
17632;DHT22;8934;51.194;17.150;2022-08-04T14:27:43;37.30;69.90
17632;DHT22;8934;51.194;17.150;2022-08-04T14:30:33;37.30;65.20
17632;DHT22;8934;51.194;17.150;2022-08-04T14:33:21;37.30;69.10
17632;DHT22;8934;51.194;17.150;2022-08-04T14:36:37;37.70;68.20
17632;DHT22;8934;51.194;17.150;2022-08-04T14:39:47;38.20;68.60
17632;DHT22;8934;51.194;17.150;2022-08-04T14:42:55;38.20;66.50
17632;DHT22;8934;51.194;17.150;2022-08-04T14:45:44;37.90;66.50
17632;DHT22;8934;51.194;17.150;2022-08-04T14:48:42;37.50;69.20
17632;DHT22;8934;51.194;17.150;2022-08-04T14:51:51;37.20;67.80
17632;DHT22;8934;51.194;17.150;2022-08-04T14:54:40;37.00;70.70
17632;DHT22;8934;51.194;17.150;2022-08-04T14:57:29;37.10;68.90
17632;DHT22;8934;51.194;17.150;2022-08-04T15:00:42;37.30;69.70
17632;DHT22;8934;51.194;17.150;2022-08-04T15:03:30;37.70;67.30
17632;DHT22;8934;51.194;17.150;2022-08-04T15:06:19;37.80;70.40
17632;DHT22;8934;51.194;17.150;2022-08-04T15:09:09;37.70;69.50
17632;DHT22;8934;51.194;17.150;2022-08-04T15:11:56;37.80;66.00
17632;DHT22;8934;51.194;17.150;2022-08-04T15:14:44;38.00;68.60
17632;DHT22;8934;51.194;17.150;2022-08-04T15:17:31;38.10;65.80
17632;DHT22;8934;51.194;17.150;2022-08-04T15:20:20;38.10;68.40
17632;DHT22;8934;51.194;17.150;2022-08-04T15:23:07;38.00;70.50
17632;DHT22;8934;51.194;17.150;2022-08-04T15:25:56;38.10;69.30
17632;DHT22;8934;51.194;17.150;2022-08-04T15:28:49;38.40;68.60
17632;DHT22;8934;51.194;17.150;2022-08-04T15:31:38;38.80;68.20
17632;DHT22;8934;51.194;17.150;2022-08-04T15:34:47;38.90;66.70
17632;DHT22;8934;51.194;17.150;2022-08-04T15:37:38;39.20;64.20
17632;DHT22;8934;51.194;17.150;2022-08-04T15:40:28;39.20;65.20
17632;DHT22;8934;51.194;17.150;2022-08-04T15:43:22;38.90;64.20
17632;DHT22;8934;51.194;17.150;2022-08-04T15:46:13;38.90;65.00
17632;DHT22;8934;51.194;17.150;2022-08-04T15:49:21;38.50;62.50
17632;DHT22;8934;51.194;17.150;2022-08-04T15:52:09;38.10;65.50
17632;DHT22;8934;51.194;17.150;2022-08-04T15:55:28;38.20;64.80
17632;DHT22;8934;51.194;17.150;2022-08-04T15:58:19;38.30;62.10
17632;DHT22;8934;51.194;17.150;2022-08-04T16:01:14;38.60;64.40
17632;DHT22;8934;51.194;17.150;2022-08-04T16:07:05;39.30;62.80
17632;DHT22;8934;51.194;17.150;2022-08-04T16:09:52;39.00;65.60
17632;DHT22;8934;51.194;17.150;2022-08-04T16:12:53;38.80;63.00
17632;DHT22;8934;51.194;17.150;2022-08-04T16:15:43;38.70;62.50
17632;DHT22;8934;51.194;17.150;2022-08-04T16:18:38;38.90;63.10
17632;DHT22;8934;51.194;17.150;2022-08-04T16:21:26;38.90;66.80
17632;DHT22;8934;51.194;17.150;2022-08-04T16:24:17;38.70;64.40
17632;DHT22;8934;51.194;17.150;2022-08-04T16:27:05;38.80;64.00
17632;DHT22;8934;51.194;17.150;2022-08-04T16:30:01;38.70;65.60
17632;DHT22;8934;51.194;17.150;2022-08-04T16:32:48;38.50;62.00
17632;DHT22;8934;51.194;17.150;2022-08-04T16:35:40;38.20;65.80
17632;DHT22;8934;51.194;17.150;2022-08-04T16:38:27;38.20;65.70
17632;DHT22;8934;51.194;17.150;2022-08-04T16:41:16;37.90;64.60
17632;DHT22;8934;51.194;17.150;2022-08-04T16:44:27;38.00;63.30
17632;DHT22;8934;51.194;17.150;2022-08-04T16:50:45;37.40;66.10
17632;DHT22;8934;51.194;17.150;2022-08-04T16:53:35;36.70;64.80
17632;DHT22;8934;51.194;17.150;2022-08-04T16:56:42;36.60;66.70
17632;DHT22;8934;51.194;17.150;2022-08-04T16:59:30;36.50;68.80
17632;DHT22;8934;51.194;17.150;2022-08-04T17:02:21;36.60;67.00
17632;DHT22;8934;51.194;17.150;2022-08-04T17:05:18;36.70;67.30
17632;DHT22;8934;51.194;17.150;2022-08-04T17:08:28;36.90;69.40
17632;DHT22;8934;51.194;17.150;2022-08-04T17:11:16;37.10;70.60
17632;DHT22;8934;51.194;17.150;2022-08-04T17:14:03;37.00;68.10
17632;DHT22;8934;51.194;17.150;2022-08-04T17:16:52;37.00;71.20
17632;DHT22;8934;51.194;17.150;2022-08-04T17:19:40;37.00;69.10
17632;DHT22;8934;51.194;17.150;2022-08-04T17:22:37;36.90;69.90
17632;DHT22;8934;51.194;17.150;2022-08-04T17:25:26;36.80;70.40
17632;DHT22;8934;51.194;17.150;2022-08-04T17:28:34;36.60;70.80
17632;DHT22;8934;51.194;17.150;2022-08-04T17:31:34;36.10;70.40
17632;DHT22;8934;51.194;17.150;2022-08-04T17:34:22;35.40;71.20
17632;DHT22;8934;51.194;17.150;2022-08-04T17:37:11;34.40;73.20
17632;DHT22;8934;51.194;17.150;2022-08-04T17:40:19;33.40;76.70
17632;DHT22;8934;51.194;17.150;2022-08-04T17:43:12;32.30;79.10
17632;DHT22;8934;51.194;17.150;2022-08-04T17:46:21;31.60;80.90
17632;DHT22;8934;51.194;17.150;2022-08-04T17:49:29;31.20;82.60
17632;DHT22;8934;51.194;17.150;2022-08-04T17:52:37;30.70;84.40
17632;DHT22;8934;51.194;17.150;2022-08-04T17:55:36;30.20;85.00
17632;DHT22;8934;51.194;17.150;2022-08-04T17:58:26;29.80;85.30
17632;DHT22;8934;51.194;17.150;2022-08-04T18:01:13;29.30;87.00
17632;DHT22;8934;51.194;17.150;2022-08-04T18:04:26;28.90;88.40
17632;DHT22;8934;51.194;17.150;2022-08-04T18:07:15;28.50;89.20
17632;DHT22;8934;51.194;17.150;2022-08-04T18:10:33;28.10;90.10
17632;DHT22;8934;51.194;17.150;2022-08-04T18:13:41;27.70;90.70
17632;DHT22;8934;51.194;17.150;2022-08-04T18:16:29;27.30;90.90
17632;DHT22;8934;51.194;17.150;2022-08-04T18:19:16;27.10;91.40
17632;DHT22;8934;51.194;17.150;2022-08-04T18:22:04;26.80;91.80
17632;DHT22;8934;51.194;17.150;2022-08-04T18:25:02;26.60;92.50
17632;DHT22;8934;51.194;17.150;2022-08-04T18:27:51;26.30;92.80
17632;DHT22;8934;51.194;17.150;2022-08-04T18:30:40;26.10;93.20
17632;DHT22;8934;51.194;17.150;2022-08-04T18:33:41;25.90;93.40
17632;DHT22;8934;51.194;17.150;2022-08-04T18:36:42;25.70;93.90
17632;DHT22;8934;51.194;17.150;2022-08-04T18:39:42;25.40;94.30
17632;DHT22;8934;51.194;17.150;2022-08-04T18:42:50;25.20;94.70
17632;DHT22;8934;51.194;17.150;2022-08-04T18:45:39;25.00;94.90
17632;DHT22;8934;51.194;17.150;2022-08-04T18:48:36;24.80;95.30
17632;DHT22;8934;51.194;17.150;2022-08-04T18:51:23;24.60;95.50
17632;DHT22;8934;51.194;17.150;2022-08-04T18:54:16;24.50;95.80
17632;DHT22;8934;51.194;17.150;2022-08-04T18:57:08;24.30;96.20
17632;DHT22;8934;51.194;17.150;2022-08-04T19:00:16;24.20;96.60
17632;DHT22;8934;51.194;17.150;2022-08-04T19:03:06;24.00;97.10
17632;DHT22;8934;51.194;17.150;2022-08-04T19:05:54;23.90;97.50
17632;DHT22;8934;51.194;17.150;2022-08-04T19:08:43;23.70;97.80
17632;DHT22;8934;51.194;17.150;2022-08-04T19:11:31;23.60;98.30